Time;durP1;ratioP1;P1;durP2;ratioP2;P2;SDS_P1;SDS_P2;PMS_P1;PMS_P2;Temp;Humidity;BMP_temperature;BMP_pressure;BME280_temperature;BME280_humidity;BME280_pressure;Samples;Min_cycle;Max_cycle;Signal;HPM_P1;HPM_P2
2022/12/09 00:00:51;;;;;;;;;44.67;37.33;;;;;5.94;67.14;100234.53;5001560;28;45637;-71
2022/12/09 00:03:17;;;;;;;;;39.00;34.00;;;;;5.73;67.79;100208.94;5018412;28;45405;-69
2022/12/09 00:05:42;;;;;;;;;49.00;39.33;;;;;5.67;67.99;100206.81;5018955;28;46840;-74
2022/12/09 00:08:07;;;;;;;;;44.33;37.00;;;;;5.72;67.96;100204.63;5001047;28;45487;-69
2022/12/09 00:10:32;;;;;;;;;48.67;39.33;;;;;5.78;68.46;100219.94;5019235;28;45442;-70
2022/12/09 00:12:58;;;;;;;;;38.67;34.33;;;;;5.75;68.36;100214.91;5019325;28;45292;-71
2022/12/09 00:15:23;;;;;;;;;41.33;36.33;;;;;5.78;67.76;100213.81;5018631;28;46835;-69
2022/12/09 00:17:48;;;;;;;;;44.67;36.67;;;;;5.89;68.45;100231.41;5018824;28;45248;-70
2022/12/09 00:20:14;;;;;;;;;43.00;34.33;;;;;5.68;67.98;100195.31;5019059;28;45343;-70
2022/12/09 00:22:39;;;;;;;;;45.67;32.33;;;;;5.79;67.91;100213.69;5018899;28;45578;-69
2022/12/09 00:25:05;;;;;;;;;42.00;35.33;;;;;5.41;68.15;100147.47;5000832;28;47946;-69
2022/12/09 00:27:30;;;;;;;;;36.67;30.33;;;;;5.81;67.96;100213.59;5017395;28;45274;-69
2022/12/09 00:29:56;;;;;;;;;38.67;30.67;;;;;5.53;68.08;100172.81;5018842;28;45216;-69
2022/12/09 00:32:21;;;;;;;;;39.67;32.67;;;;;5.89;68.38;100242.81;5018983;28;45554;-70
2022/12/09 00:34:47;;;;;;;;;36.67;33.67;;;;;5.67;67.98;100180.44;5016481;28;66455;-70
2022/12/09 00:37:13;;;;;;;;;29.67;22.33;;;;;5.91;67.72;100218.97;5018503;28;45512;-69
2022/12/09 00:39:38;;;;;;;;;40.00;29.67;;;;;5.87;67.47;100220.16;5017119;28;46314;-71
2022/12/09 00:42:04;;;;;;;;;34.67;28.00;;;;;5.85;68.08;100215.03;5018937;28;45317;-69
2022/12/09 00:44:29;;;;;;;;;28.67;28.67;;;;;5.33;67.05;100123.53;5018376;28;45976;-69
2022/12/09 00:46:54;;;;;;;;;27.33;23.00;;;;;5.88;67.42;100214.75;5017969;28;55364;-69
2022/12/09 00:49:19;;;;;;;;;38.67;31.33;;;;;5.87;67.80;100213.09;5018700;28;45410;-70
2022/12/09 00:51:45;;;;;;;;;33.00;26.67;;;;;5.86;67.74;100208.78;5019148;28;45471;-69
2022/12/09 00:54:10;;;;;;;;;33.00;29.67;;;;;5.89;68.13;100202.41;5018665;28;45646;-70
2022/12/09 00:56:36;;;;;;;;;33.67;27.67;;;;;6.04;67.40;100204.66;5016748;28;45444;-68
2022/12/09 00:59:01;;;;;;;;;44.00;35.00;;;;;6.05;66.76;100208.94;5018281;28;45442;-70
2022/12/09 01:01:27;;;;;;;;;32.00;29.33;;;;;5.57;67.27;100139.94;5018508;28;45539;-71
2022/12/09 01:03:53;;;;;;;;;29.33;24.00;;;;;5.75;68.05;100180.63;5017896;28;45768;-69
2022/12/09 01:06:21;;;;;;;;;32.33;29.00;;;;;5.41;67.56;100108.78;5016596;28;45271;-70
2022/12/09 01:08:47;;;;;;;;;33.67;28.00;;;;;5.48;68.21;100122.28;5018221;28;45368;-70
2022/12/09 01:11:27;;;;;;;;;52.00;38.33;;;;;5.75;69.37;100185.91;5000376;28;45421;-70
2022/12/09 01:13:56;;;;;;;;;40.67;34.33;;;;;5.54;69.72;100157.84;5017784;28;46637;-69
2022/12/09 01:16:25;;;;;;;;;50.33;38.33;;;;;5.71;69.98;100192.41;5017912;28;45268;-68
2022/12/09 01:18:52;;;;;;;;;53.33;37.33;;;;;4.87;70.63;100069.31;5017709;28;45314;-70
2022/12/09 01:21:17;;;;;;;;;51.67;40.33;;;;;4.65;71.94;100074.63;5018068;28;45719;-70
2022/12/09 01:23:44;;;;;;;;;50.50;39.25;;;;;4.31;71.75;100018.56;5016876;28;46427;-70
2022/12/09 01:26:09;;;;;;;;;39.33;35.67;;;;;5.13;72.98;100169.94;5018439;28;45278;-69
2022/12/09 01:28:36;;;;;;;;;57.00;42.33;;;;;4.95;72.38;100156.44;5017904;28;45371;-68
2022/12/09 01:31:10;;;;;;;;;44.67;35.67;;;;;4.08;72.92;100037.00;5000321;28;45491;-70
2022/12/09 01:33:36;;;;;;;;;39.67;35.67;;;;;5.11;73.23;100193.78;5017453;28;45798;-68
2022/12/09 01:36:09;;;;;;;;;52.00;40.00;;;;;4.30;73.18;100059.84;5017814;28;45746;-70
2022/12/09 01:38:35;;;;;;;;;57.75;42.75;;;;;5.18;73.29;100207.28;5000662;28;45260;-69
2022/12/09 01:41:00;;;;;;;;;40.75;32.75;;;;;5.08;72.78;100186.13;5016206;28;45407;-69
2022/12/09 01:43:26;;;;;;;;;47.33;37.67;;;;;4.53;73.40;100123.81;5017394;28;45819;-70
2022/12/09 01:45:51;;;;;;;;;54.75;42.25;;;;;4.94;73.27;100181.09;5017321;28;45217;-68
2022/12/09 01:48:26;;;;;;;;;41.67;37.33;;;;;4.17;73.36;100074.91;5017729;28;45515;-70
2022/12/09 01:50:56;;;;;;;;;52.00;40.50;;;;;4.21;73.39;100071.09;5017683;28;45290;-71
2022/12/09 01:53:43;;;;;;;;;52.00;42.00;;;;;5.06;74.33;100221.47;5017123;28;45723;-71
2022/12/09 01:56:18;;;;;;;;;60.33;40.33;;;;;5.04;74.03;100208.41;5015756;28;45509;-69
2022/12/09 01:58:44;;;;;;;;;55.50;43.50;;;;;4.74;73.81;100152.88;5016516;28;45494;-70
2022/12/09 02:01:11;;;;;;;;;47.50;39.75;;;;;5.01;73.39;100192.03;4999550;28;45558;-68
2022/12/09 02:03:36;;;;;;;;;53.75;43.00;;;;;4.94;73.69;100186.38;5017370;28;46076;-69
2022/12/09 02:06:02;;;;;;;;;49.00;41.67;;;;;4.96;73.62;100184.47;5017156;28;45320;-70
2022/12/09 02:08:27;;;;;;;;;56.50;42.50;;;;;4.27;73.59;100075.88;5017045;28;45198;-70
2022/12/09 02:10:52;;;;;;;;;43.75;34.75;;;;;5.01;73.48;100189.38;5015928;28;45344;-69
2022/12/09 02:13:27;;;;;;;;;54.33;42.00;;;;;3.70;73.52;99991.81;5016773;28;45551;-68
2022/12/09 02:15:56;;;;;;;;;50.67;41.33;;;;;4.87;74.15;100201.00;5017116;28;45226;-69
2022/12/09 02:18:37;;;;;;;;;58.67;40.67;;;;;4.85;75.00;100197.66;5015605;28;45286;-70
2022/12/09 02:21:02;;;;;;;;;55.25;41.50;;;;;3.93;74.52;100027.66;5017203;28;45283;-70
2022/12/09 02:23:49;;;;;;;;;44.00;30.67;;;;;4.97;74.03;100186.13;5015201;28;48490;-70
2022/12/09 02:26:24;;;;;;;;;59.75;42.00;;;;;4.92;74.77;100182.19;5016973;28;45439;-70
2022/12/09 02:29:16;;;;;;;;;57.67;45.00;;;;;4.83;74.15;100199.56;5015451;28;46077;-71
2022/12/09 02:32:02;;;;;;;;;55.00;40.00;;;;;4.58;74.69;100137.44;4975984;28;45651;-69
2022/12/09 02:34:32;;;;;;;;;61.00;45.00;;;;;4.87;75.22;100201.00;5016698;28;45711;-69
2022/12/09 02:37:09;;;;;;;;;62.00;45.75;;;;;4.80;75.05;100178.72;5015094;28;45368;-69
2022/12/09 02:39:40;;;;;;;;;56.75;43.00;;;;;4.79;74.75;100179.69;4998919;28;45293;-70
2022/12/09 02:42:08;;;;;;;;;56.50;44.25;;;;;4.27;74.20;100081.97;5016857;28;45870;-69
2022/12/09 02:44:37;;;;;;;;;60.50;45.00;;;;;4.61;74.76;100139.03;5016391;28;46245;-70
2022/12/09 02:47:06;;;;;;;;;43.67;35.00;;;;;4.75;74.69;100154.56;5016428;28;45265;-69
2022/12/09 02:49:33;;;;;;;;;56.75;41.50;;;;;4.58;74.89;100161.13;5016588;28;45336;-69
2022/12/09 02:52:01;;;;;;;;;57.50;40.75;;;;;4.49;75.12;100149.53;5015113;28;45590;-70
2022/12/09 02:54:30;;;;;;;;;47.75;38.50;;;;;4.59;76.09;100166.28;5016486;28;46788;-70
2022/12/09 02:57:00;;;;;;;;;50.00;40.75;;;;;4.60;75.03;100164.50;5016025;28;45345;-69
2022/12/09 02:59:26;;;;;;;;;52.25;41.75;;;;;3.81;75.58;100037.38;5016500;28;45323;-70
2022/12/09 03:01:51;;;;;;;;;59.00;46.25;;;;;4.52;74.99;100173.00;5016833;28;45230;-68
2022/12/09 03:04:25;;;;;;;;;63.00;44.75;;;;;4.06;75.56;100109.94;5014940;28;47609;-68
2022/12/09 03:06:53;;;;;;;;;51.50;36.00;;;;;4.09;75.30;100108.88;5015033;28;45399;-69
2022/12/09 03:09:32;;;;;;;;;52.75;39.25;;;;;4.34;76.13;100171.78;5015327;28;45269;-70
2022/12/09 03:12:03;;;;;;;;;51.00;42.00;;;;;3.88;75.85;100104.28;5020562;28;45346;-70
2022/12/09 03:14:37;;;;;;;;;51.25;39.00;;;;;4.25;76.24;100183.88;5019984;28;45943;-68
2022/12/09 03:17:13;;;;;;;;;54.50;40.00;;;;;3.46;76.25;100083.88;5001427;28;45263;-68
2022/12/09 03:19:54;;;;;;;;;49.75;37.50;;;;;3.00;75.61;99992.72;5019693;28;45419;-69
2022/12/09 03:22:25;;;;;;;;;55.25;40.50;;;;;3.51;76.02;100073.84;5019787;28;45577;-69
2022/12/09 03:24:58;;;;;;;;;43.25;33.75;;;;;3.98;75.59;100149.97;5019302;28;46781;-68
2022/12/09 03:27:38;;;;;;;;;41.00;31.00;;;;;2.97;75.59;99979.81;5019488;28;45318;-70
2022/12/09 03:30:06;;;;;;;;;41.67;34.33;;;;;3.92;75.01;100124.13;5001775;28;45507;-69
2022/12/09 03:32:32;;;;;;;;;45.33;37.00;;;;;3.33;75.56;100032.22;5001691;28;45543;-70
2022/12/09 03:35:07;;;;;;;;;50.00;39.33;;;;;4.15;74.98;100151.31;5019252;28;46515;-69
2022/12/09 03:37:36;;;;;;;;;37.33;28.67;;;;;3.33;74.95;99999.88;5019681;28;45320;-68
2022/12/09 03:40:06;;;;;;;;;40.00;35.33;;;;;3.15;73.97;99967.13;5019610;28;45274;-68
2022/12/09 03:42:41;;;;;;;;;44.67;37.00;;;;;4.35;74.43;100162.94;5018405;28;45544;-71
2022/12/09 03:45:10;;;;;;;;;42.33;35.33;;;;;4.26;74.48;100159.22;5019172;28;46438;-70
2022/12/09 03:47:35;;;;;;;;;46.67;39.33;;;;;4.29;74.09;100145.00;5019226;28;45466;-69
2022/12/09 03:50:01;;;;;;;;;35.00;28.33;;;;;4.24;74.20;100134.00;5019402;28;45294;-69
2022/12/09 03:52:37;;;;;;;;;46.33;38.00;;;;;4.34;74.19;100166.53;5001719;28;45520;-70
2022/12/09 03:55:32;;;;;;;;;42.33;32.00;;;;;4.20;73.42;100137.78;5019251;28;45667;-69
2022/12/09 03:57:59;;;;;;;;;33.33;30.67;;;;;3.22;72.92;99984.94;5017456;28;46105;-70
2022/12/09 04:00:26;;;;;;;;;37.33;30.67;;;;;3.92;73.04;100095.22;5019376;28;45496;-69
2022/12/09 04:02:51;;;;;;;;;48.00;38.33;;;;;4.02;73.61;100108.50;5017884;28;45250;-69
2022/12/09 04:05:16;;;;;;;;;37.67;36.33;;;;;4.24;73.65;100142.72;5018790;28;45606;-68
2022/12/09 04:07:42;;;;;;;;;40.00;35.33;;;;;3.11;72.96;99971.75;5019006;28;45479;-69
2022/12/09 04:10:08;;;;;;;;;45.67;36.00;;;;;3.87;72.74;100063.19;5019250;28;45223;-70
2022/12/09 04:12:33;;;;;;;;;42.00;35.33;;;;;4.31;72.57;100140.44;5019366;28;45278;-69
2022/12/09 04:14:59;;;;;;;;;46.67;37.33;;;;;3.28;72.31;99963.44;5018624;28;45517;-70
2022/12/09 04:17:24;;;;;;;;;48.75;39.25;;;;;3.61;73.70;100023.13;5018768;28;45329;-69
2022/12/09 04:19:49;;;;;;;;;42.33;32.00;;;;;3.89;72.38;100050.75;5018776;28;45340;-69
2022/12/09 04:22:14;;;;;;;;;36.67;30.67;;;;;4.43;71.81;100131.59;5017883;28;45238;-69
2022/12/09 04:24:40;;;;;;;;;34.00;27.00;;;;;4.42;72.32;100115.94;5019502;28;45990;-68
2022/12/09 04:27:05;;;;;;;;;47.67;37.67;;;;;4.30;72.04;100132.66;5018763;28;45420;-70
2022/12/09 04:29:31;;;;;;;;;42.00;33.00;;;;;4.16;72.65;100123.22;5018803;28;45357;-70
2022/12/09 04:31:56;;;;;;;;;44.00;28.00;;;;;4.14;72.23;100138.28;5018885;28;45350;-70
2022/12/09 04:34:21;;;;;;;;;37.33;30.67;;;;;4.12;72.91;100119.97;5018513;28;46409;-70
2022/12/09 04:36:47;;;;;;;;;50.67;37.33;;;;;3.59;72.42;100045.19;5017688;28;58984;-69
2022/12/09 04:39:13;;;;;;;;;39.67;34.33;;;;;3.70;72.84;100083.81;5018669;28;45495;-70
2022/12/09 04:41:38;;;;;;;;;42.00;35.33;;;;;3.91;73.68;100143.50;5017501;28;45265;-69
2022/12/09 04:44:04;;;;;;;;;42.67;36.00;;;;;3.63;73.28;100075.56;5018556;28;45528;-68
2022/12/09 04:46:29;;;;;;;;;48.67;36.00;;;;;3.80;73.98;100108.44;5016988;28;45464;-70
2022/12/09 04:48:54;;;;;;;;;46.00;37.00;;;;;3.84;73.48;100123.06;5018204;28;50705;-69
2022/12/09 04:51:19;;;;;;;;;54.33;40.33;;;;;3.07;74.01;99990.50;5018334;28;45619;-70
2022/12/09 04:53:45;;;;;;;;;42.00;37.00;;;;;2.65;73.03;99925.31;5017296;28;67276;-70
2022/12/09 04:56:19;;;;;;;;;35.67;25.33;;;;;3.88;72.93;100127.13;5018165;28;45478;-70
2022/12/09 04:58:45;;;;;;;;;38.67;33.67;;;;;3.89;72.75;100129.63;5018875;28;45244;-70
2022/12/09 05:01:15;;;;;;;;;49.00;39.33;;;;;3.80;73.07;100109.28;5018666;28;45246;-69
2022/12/09 05:03:41;;;;;;;;;37.33;31.00;;;;;3.62;73.70;100081.78;5018163;28;46636;-69
2022/12/09 05:06:12;;;;;;;;;49.67;38.33;;;;;3.85;72.58;100122.94;5017810;28;45562;-69
2022/12/09 05:08:38;;;;;;;;;42.67;37.00;;;;;3.65;72.55;100095.53;5018149;28;45199;-69
2022/12/09 05:11:04;;;;;;;;;31.00;27.33;;;;;3.89;72.44;100127.00;5017995;28;45260;-68
2022/12/09 05:13:30;;;;;;;;;32.67;31.67;;;;;3.60;72.82;100086.28;4996253;28;48581;-68
2022/12/09 05:16:07;;;;;;;;;38.67;36.00;;;;;3.66;72.87;100080.59;4998266;28;45426;-69
2022/12/09 05:18:33;;;;;;;;;44.00;35.67;;;;;3.92;72.28;100137.28;4996483;28;45408;-69
2022/12/09 05:21:03;;;;;;;;;43.00;38.00;;;;;3.89;71.88;100134.06;4998203;28;45261;-68
2022/12/09 05:23:28;;;;;;;;;37.67;33.00;;;;;2.79;72.55;99989.06;4996393;28;49138;-70
2022/12/09 05:25:55;;;;;;;;;32.67;29.67;;;;;3.70;72.23;100128.50;4997593;28;45332;-69
2022/12/09 05:28:20;;;;;;;;;37.67;30.33;;;;;3.57;71.71;100082.09;4998164;28;45435;-70
2022/12/09 05:30:46;;;;;;;;;33.67;30.33;;;;;2.88;71.96;99967.41;4998186;28;45355;-68
2022/12/09 05:33:11;;;;;;;;;34.67;26.00;;;;;3.93;71.68;100131.06;4997455;28;45682;-71
2022/12/09 05:35:37;;;;;;;;;32.67;30.00;;;;;3.87;71.86;100121.03;4998078;28;45366;-70
2022/12/09 05:38:02;;;;;;;;;41.33;33.00;;;;;4.07;71.29;100150.22;4997758;28;45405;-69
2022/12/09 05:40:27;;;;;;;;;34.33;29.67;;;;;4.11;70.47;100146.41;4997981;28;45506;-69
2022/12/09 05:42:53;;;;;;;;;37.33;34.33;;;;;4.13;69.83;100137.44;4997589;28;45469;-72
2022/12/09 05:45:18;;;;;;;;;32.00;29.33;;;;;3.45;70.28;100045.41;4997808;28;45555;-70
2022/12/09 05:47:43;;;;;;;;;36.00;35.00;;;;;3.86;70.29;100100.94;4996427;28;45380;-68
2022/12/09 05:50:09;;;;;;;;;26.33;19.00;;;;;4.13;70.00;100136.59;4997070;28;50263;-70
2022/12/09 05:52:35;;;;;;;;;28.67;26.33;;;;;3.34;69.91;100023.41;4997383;28;45894;-70
2022/12/09 05:55:05;;;;;;;;;38.67;35.67;;;;;3.82;69.92;100123.16;4997657;28;45185;-69
2022/12/09 05:57:33;;;;;;;;;33.00;27.33;;;;;1.99;70.48;99837.50;4995965;28;45336;-70
2022/12/09 05:59:58;;;;;;;;;36.00;29.33;;;;;3.49;70.16;100084.47;4997547;28;45494;-69
2022/12/09 06:02:23;;;;;;;;;33.67;29.33;;;;;3.66;70.14;100123.47;4996508;28;66649;-69
2022/12/09 06:04:49;;;;;;;;;43.00;25.33;;;;;3.77;70.43;100146.31;4997617;28;45603;-69
2022/12/09 06:07:14;;;;;;;;;39.00;31.00;;;;;3.56;70.73;100121.66;4997617;28;45379;-70
2022/12/09 06:09:40;;;;;;;;;35.33;32.00;;;;;3.63;70.29;100123.72;4997765;28;45226;-68
2022/12/09 06:12:05;;;;;;;;;31.00;26.67;;;;;2.84;69.58;99990.44;4997327;28;46297;-70
2022/12/09 06:14:31;;;;;;;;;37.00;28.33;;;;;3.53;69.93;100127.13;5009497;28;45333;-69
2022/12/09 06:16:56;;;;;;;;;32.67;29.00;;;;;3.69;69.39;100158.38;5016826;28;45258;-68
2022/12/09 06:19:21;;;;;;;;;28.00;24.00;;;;;3.60;68.97;100158.13;5015869;28;45468;-70
2022/12/09 06:21:47;;;;;;;;;34.00;28.67;;;;;3.59;68.89;100138.00;5016910;28;45592;-71
2022/12/09 06:24:12;;;;;;;;;27.00;24.33;;;;;3.73;68.78;100165.91;5016822;28;45512;-70
2022/12/09 06:26:37;;;;;;;;;24.67;20.33;;;;;3.29;68.81;100101.72;5017120;28;45242;-69
2022/12/09 06:29:02;;;;;;;;;23.67;23.00;;;;;3.72;68.02;100151.09;5016493;28;45646;-69
2022/12/09 06:31:28;;;;;;;;;27.00;25.00;;;;;3.33;68.35;100118.94;5016021;28;65914;-69
2022/12/09 06:33:54;;;;;;;;;21.67;18.67;;;;;3.60;68.82;100175.66;5015552;28;45304;-70
2022/12/09 06:36:19;;;;;;;;;25.33;22.33;;;;;2.71;68.10;100065.75;5016999;28;45464;-69
2022/12/09 06:38:44;;;;;;;;;27.33;24.00;;;;;3.34;68.07;100196.81;5017085;28;45522;-70
2022/12/09 06:41:12;;;;;;;;;27.00;21.33;;;;;2.21;68.47;99998.56;5016882;28;46521;-69
2022/12/09 06:43:38;;;;;;;;;27.33;19.33;;;;;3.09;68.67;100127.78;5018014;28;45324;-70
2022/12/09 06:46:21;;;;;;;;;24.33;20.00;;;;;3.31;68.48;100164.66;5021162;28;45309;-70
2022/12/09 06:48:47;;;;;;;;;29.33;28.67;;;;;3.12;68.51;100117.03;5020882;28;45294;-72
2022/12/09 06:51:13;;;;;;;;;35.00;27.33;;;;;3.47;68.76;100149.47;5020156;28;46014;-71
2022/12/09 06:53:38;;;;;;;;;33.67;25.67;;;;;3.01;68.35;100078.47;5020113;28;45383;-70
2022/12/09 06:56:06;;;;;;;;;36.33;30.00;;;;;3.35;67.46;100114.41;5020282;28;45694;-71
2022/12/09 06:58:32;;;;;;;;;28.00;26.33;;;;;3.39;68.07;100140.44;5021383;28;45538;-70
2022/12/09 07:01:12;;;;;;;;;31.67;26.67;;;;;3.35;68.08;100160.84;5002951;28;45950;-70
2022/12/09 07:03:42;;;;;;;;;31.00;28.33;;;;;3.12;68.83;100133.63;5021171;28;45325;-70
2022/12/09 07:06:19;;;;;;;;;27.00;22.00;;;;;3.25;68.70;100171.22;5002455;28;45310;-71
2022/12/09 07:08:44;;;;;;;;;32.67;29.67;;;;;3.24;68.38;100161.66;5018493;28;45296;-69
2022/12/09 07:11:09;;;;;;;;;28.00;24.00;;;;;3.29;68.41;100159.53;5017765;28;50797;-69
2022/12/09 07:13:35;;;;;;;;;37.33;34.00;;;;;3.24;69.05;100164.28;5019761;28;45514;-69
2022/12/09 07:16:00;;;;;;;;;38.00;31.33;;;;;3.20;68.45;100178.56;5018369;28;45341;-69
2022/12/09 07:18:25;;;;;;;;;37.33;30.00;;;;;3.00;68.94;100166.03;5001795;28;45523;-70
2022/12/09 07:20:51;;;;;;;;;30.67;24.33;;;;;2.79;69.44;100146.56;5001732;28;49538;-72
2022/12/09 07:23:16;;;;;;;;;25.67;24.00;;;;;2.68;69.01;100121.94;5017892;28;45386;-70
2022/12/09 07:25:42;;;;;;;;;32.67;23.67;;;;;1.50;68.45;99929.25;5001601;28;45522;-71
2022/12/09 07:28:07;;;;;;;;;37.00;26.67;;;;;3.08;68.98;100203.09;5018380;28;45424;-71
2022/12/09 07:30:32;;;;;;;;;26.67;25.00;;;;;1.65;67.80;99962.25;5017853;28;58726;-70
2022/12/09 07:32:58;;;;;;;;;28.00;23.00;;;;;2.98;68.02;100171.41;5019266;28;45503;-70
2022/12/09 07:35:23;;;;;;;;;26.33;22.33;;;;;-0.02;67.37;99663.25;5018233;28;45333;-70
2022/12/09 07:37:48;;;;;;;;;24.67;17.67;;;;;2.65;66.98;100095.06;5018936;28;45527;-71
2022/12/09 07:40:14;;;;;;;;;27.67;24.00;;;;;2.93;67.67;100154.31;5020771;28;47692;-70
2022/12/09 07:42:39;;;;;;;;;27.33;24.67;;;;;3.23;67.92;100191.50;5019254;28;45476;-68
2022/12/09 07:45:05;;;;;;;;;29.00;23.33;;;;;3.30;67.21;100208.50;5018928;28;45482;-69
2022/12/09 07:47:30;;;;;;;;;33.33;23.00;;;;;3.33;67.67;100184.63;5019570;28;45214;-72
2022/12/09 07:49:55;;;;;;;;;27.33;25.00;;;;;3.40;67.21;100194.66;5019009;28;45389;-69
2022/12/09 07:52:21;;;;;;;;;18.67;18.00;;;;;3.32;66.74;100193.44;5018266;28;45275;-70
2022/12/09 07:54:46;;;;;;;;;28.33;25.00;;;;;3.26;67.58;100182.56;5020648;28;45786;-70
2022/12/09 07:57:11;;;;;;;;;27.33;25.00;;;;;2.56;66.14;100087.84;5019809;28;45291;-70
2022/12/09 07:59:37;;;;;;;;;24.33;19.67;;;;;2.41;66.50;100077.50;5019117;28;46018;-70
2022/12/09 08:02:02;;;;;;;;;19.33;15.67;;;;;1.75;67.04;99981.63;5018903;28;45271;-70
2022/12/09 08:04:29;;;;;;;;;20.67;19.33;;;;;2.54;66.77;100137.81;5001276;28;45711;-70
2022/12/09 08:06:54;;;;;;;;;25.33;21.00;;;;;2.38;66.82;100106.53;5017893;28;45404;-69
2022/12/09 08:09:20;;;;;;;;;23.00;19.33;;;;;2.77;66.52;100190.44;5018751;28;46411;-71
2022/12/09 08:11:45;;;;;;;;;21.67;16.67;;;;;2.93;67.24;100225.19;5019176;28;45348;-71
2022/12/09 08:14:11;;;;;;;;;29.33;21.33;;;;;1.87;67.00;100031.53;5017642;28;45339;-72
2022/12/09 08:16:37;;;;;;;;;29.67;27.33;;;;;1.54;67.05;99980.50;5019574;28;45549;-71
2022/12/09 08:19:02;;;;;;;;;27.33;21.33;;;;;2.55;67.49;100165.72;5001354;28;47976;-70
2022/12/09 08:21:30;;;;;;;;;25.67;23.33;;;;;2.85;68.06;100210.00;5019301;28;45271;-70
2022/12/09 08:23:59;;;;;;;;;23.67;22.67;;;;;2.91;67.19;100192.94;5019750;28;45306;-71
2022/12/09 08:26:28;;;;;;;;;38.00;28.00;;;;;2.84;67.46;100175.97;5019800;28;45403;-71
2022/12/09 08:28:53;;;;;;;;;30.33;26.00;;;;;2.89;67.62;100189.59;5019140;28;46893;-70
2022/12/09 08:31:22;;;;;;;;;27.00;22.67;;;;;3.10;67.78;100203.84;5017356;28;45563;-70
2022/12/09 08:33:47;;;;;;;;;32.00;28.67;;;;;3.01;67.48;100204.50;5001807;28;45316;-70
2022/12/09 08:36:19;;;;;;;;;29.00;27.00;;;;;2.77;67.79;100159.78;5020017;28;45248;-70
2022/12/09 08:38:46;;;;;;;;;36.00;28.33;;;;;1.33;66.53;99950.53;5020212;28;45395;-71
2022/12/09 08:41:34;;;;;;;;;27.67;27.67;;;;;2.75;67.45;100166.94;5019602;28;45257;-71
2022/12/09 08:44:04;;;;;;;;;26.67;22.33;;;;;1.56;67.49;99980.38;5020294;28;45352;-71
2022/12/09 08:46:29;;;;;;;;;33.00;23.67;;;;;2.84;67.29;100175.97;5018168;28;45412;-70
2022/12/09 08:48:55;;;;;;;;;30.67;23.67;;;;;3.00;67.28;100202.78;5018570;28;46492;-69
2022/12/09 08:51:20;;;;;;;;;38.00;27.33;;;;;2.46;66.80;100082.41;5017083;28;46024;-71
2022/12/09 08:53:46;;;;;;;;;27.00;23.00;;;;;2.59;66.92;100070.06;5018543;28;45285;-71
2022/12/09 08:56:13;;;;;;;;;26.67;23.67;;;;;3.56;65.83;100206.59;5019765;28;45435;-70
2022/12/09 08:58:39;;;;;;;;;25.33;23.33;;;;;3.52;65.90;100199.03;5018556;28;45659;-71
2022/12/09 09:01:05;;;;;;;;;31.00;28.67;;;;;3.67;65.59;100211.91;5018295;28;45408;-71
2022/12/09 09:03:31;;;;;;;;;52.00;40.00;;;;;2.97;65.33;100087.47;5018667;28;45293;-71
2022/12/09 09:06:04;;;;;;;;;36.00;33.00;;;;;3.83;65.70;100221.31;5021644;28;45237;-70
2022/12/09 09:08:31;;;;;;;;;36.67;31.00;;;;;3.71;65.62;100193.28;5018346;28;46686;-73
2022/12/09 09:10:57;;;;;;;;;36.33;29.33;;;;;3.22;65.28;100128.56;5018316;28;45530;-70
2022/12/09 09:13:22;;;;;;;;;33.33;31.33;;;;;3.42;65.79;100198.06;5017333;28;45385;-71
2022/12/09 09:15:48;;;;;;;;;31.33;24.67;;;;;2.46;66.33;100057.97;5000415;28;45404;-69
2022/12/09 09:18:13;;;;;;;;;28.00;27.33;;;;;2.10;66.44;100007.16;5000140;28;48039;-70
2022/12/09 09:20:46;;;;;;;;;33.33;29.67;;;;;3.47;65.77;100215.16;5018585;28;45415;-69
2022/12/09 09:23:12;;;;;;;;;35.33;31.33;;;;;3.36;66.72;100192.28;5017505;28;45327;-70
2022/12/09 09:25:41;;;;;;;;;31.00;27.00;;;;;2.98;66.24;100105.75;5018359;28;45514;-70
2022/12/09 09:28:08;;;;;;;;;29.00;25.00;;;;;3.42;65.95;100172.63;5017859;28;46485;-71
2022/12/09 09:30:33;;;;;;;;;34.67;30.33;;;;;1.98;66.11;99947.72;4999931;28;45437;-69
2022/12/09 09:32:58;;;;;;;;;36.67;31.33;;;;;3.54;66.05;100202.41;5017731;28;45486;-71
2022/12/09 09:35:24;;;;;;;;;37.67;33.33;;;;;3.53;65.83;100238.34;5018332;28;45233;-68
2022/12/09 09:37:50;;;;;;;;;44.00;36.67;;;;;2.51;66.48;100074.22;5016723;28;47802;-70
2022/12/09 09:40:16;;;;;;;;;31.00;28.67;;;;;3.14;66.59;100186.06;5017788;28;45477;-70
2022/12/09 09:42:48;;;;;;;;;32.67;27.67;;;;;3.27;66.21;100189.50;5002176;28;45293;-70
2022/12/09 09:45:17;;;;;;;;;47.67;34.00;;;;;3.48;66.90;100229.97;5001131;28;45635;-71
2022/12/09 09:47:55;;;;;;;;;34.67;33.67;;;;;3.58;66.46;100228.34;5000113;28;48075;-69
2022/12/09 09:50:21;;;;;;;;;48.75;39.00;;;;;3.67;66.16;100237.34;5018486;28;45541;-70
2022/12/09 09:52:48;;;;;;;;;40.67;32.67;;;;;3.53;66.35;100216.50;5020461;28;45219;-72
2022/12/09 09:55:16;;;;;;;;;40.67;36.33;;;;;2.88;66.45;100072.41;5018667;28;45518;-68
2022/12/09 09:57:49;;;;;;;;;42.00;35.00;;;;;3.48;65.82;100145.88;4999021;28;45588;-70
2022/12/09 10:00:25;;;;;;;;;45.00;37.00;;;;;3.91;66.24;100190.84;4999736;28;45951;-69
2022/12/09 10:03:13;;;;;;;;;43.67;37.00;;;;;3.68;65.63;100112.84;5017526;28;45467;-69
2022/12/09 10:05:38;;;;;;;;;49.00;38.00;;;;;4.53;64.54;100216.78;5018131;28;45317;-70
2022/12/09 10:08:22;;;;;;;;;52.25;39.50;;;;;4.72;64.13;100233.78;5017631;28;45479;-69
2022/12/09 10:10:59;;;;;;;;;49.33;35.67;;;;;4.90;63.56;100211.28;5017495;28;45319;-72
2022/12/09 10:13:51;;;;;;;;;41.67;34.33;;;;;4.12;63.26;100113.88;5016246;28;45620;-71
2022/12/09 10:16:31;;;;;;;;;42.00;36.67;;;;;4.61;63.15;100202.22;5003702;28;45344;-69
2022/12/09 10:19:03;;;;;;;;;51.75;40.00;;;;;4.58;63.23;100205.91;5020309;28;45895;-68
2022/12/09 10:21:30;;;;;;;;;62.75;51.25;;;;;4.24;63.92;100165.56;5000728;28;45578;-70
2022/12/09 10:24:05;;;;;;;;;49.67;39.00;;;;;4.20;63.62;100143.88;5019699;28;45520;-71
2022/12/09 10:26:31;;;;;;;;;40.67;33.33;;;;;4.13;63.43;100163.75;5018355;28;45346;-71
2022/12/09 10:29:10;;;;;;;;;44.33;39.00;;;;;3.18;63.94;99995.78;5017837;28;46162;-72
2022/12/09 10:31:35;;;;;;;;;47.67;39.33;;;;;3.83;64.01;100142.41;5019068;28;45375;-70
2022/12/09 10:34:01;;;;;;;;;46.67;38.00;;;;;4.23;65.14;100184.94;5017775;28;45469;-69
2022/12/09 10:36:28;;;;;;;;;47.33;38.33;;;;;4.35;65.40;100189.25;5017856;28;45580;-71
2022/12/09 10:38:54;;;;;;;;;49.33;40.00;;;;;3.56;64.23;100053.31;4999041;28;46457;-70
2022/12/09 10:44:24;;;;;;;;;57.50;48.00;;;;;4.35;64.44;100188.41;5018783;28;45415;-70
2022/12/09 10:47:01;;;;;;;;;45.50;38.00;;;;;4.23;64.38;100163.91;5001646;28;45264;-72
2022/12/09 10:49:27;;;;;;;;;58.25;45.75;;;;;3.20;64.47;99978.94;5019673;28;45631;-69
2022/12/09 10:51:53;;;;;;;;;54.00;42.00;;;;;3.10;64.63;99993.72;5017569;28;45540;-70
2022/12/09 10:54:34;;;;;;;;;50.25;39.00;;;;;4.06;65.33;100157.28;5017199;28;45411;-70
2022/12/09 10:57:15;;;;;;;;;49.25;39.50;;;;;4.32;65.39;100173.69;5017330;28;45626;-70
2022/12/09 10:59:54;;;;;;;;;39.33;36.00;;;;;4.45;64.55;100179.69;5017225;28;45675;-72
2022/12/09 11:02:21;;;;;;;;;44.25;36.25;;;;;3.62;64.02;100052.88;5017696;28;45313;-70
2022/12/09 11:04:47;;;;;;;;;46.67;36.67;;;;;2.61;63.44;99866.16;4999496;28;45334;-70
2022/12/09 11:07:15;;;;;;;;;52.50;40.25;;;;;4.45;64.29;100140.22;5017917;28;45564;-70
2022/12/09 11:09:54;;;;;;;;;55.75;42.25;;;;;4.42;63.90;100158.06;5017639;28;46261;-70
2022/12/09 11:12:26;;;;;;;;;49.75;41.50;;;;;4.45;63.83;100163.06;5016116;28;45881;-71
2022/12/09 11:14:54;;;;;;;;;57.75;43.75;;;;;4.52;64.95;100165.09;5016566;28;45263;-70
2022/12/09 11:17:26;;;;;;;;;59.75;42.00;;;;;4.48;63.89;100137.34;5016100;28;45305;-70
2022/12/09 11:20:09;;;;;;;;;57.50;43.25;;;;;4.51;63.89;100121.31;5015545;28;48021;-70
2022/12/09 11:22:38;;;;;;;;;38.00;32.67;;;;;3.83;63.54;100024.09;5017567;28;45431;-70
2022/12/09 11:25:16;;;;;;;;;52.00;40.00;;;;;4.04;63.53;100025.06;5016945;28;45396;-69